createdAt,value
2023-04-01T00:02:36.769Z,0.40
2023-04-01T00:05:39.786Z,0.45
2023-04-01T00:08:42.650Z,0.40
2023-04-01T00:11:46.580Z,0.43
2023-04-01T00:14:49.291Z,0.00
2023-04-01T00:17:52.096Z,0.17
2023-04-01T00:20:55.098Z,0.30
2023-04-01T00:23:58.844Z,0.15
2023-04-01T00:27:01.601Z,0.30
2023-04-01T00:30:05.434Z,0.30
2023-04-01T00:33:08.222Z,0.30
2023-04-01T00:36:17.324Z,0.50
2023-04-01T00:39:21.998Z,0.50
2023-04-01T00:42:24.937Z,0.33
2023-04-01T00:45:44.683Z,0.40
2023-04-01T00:48:56.534Z,0.43
2023-04-01T00:52:02.780Z,0.30
2023-04-01T00:55:08.498Z,0.47
2023-04-01T00:58:17.033Z,0.40
2023-04-01T01:01:23.051Z,0.43
2023-04-01T01:04:29.396Z,0.40
2023-04-01T01:07:32.057Z,0.77
2023-04-01T01:10:36.347Z,0.55
2023-04-01T01:14:04.912Z,0.70
2023-04-01T01:17:39.881Z,0.90
2023-04-01T01:21:03.765Z,0.45
2023-04-01T01:24:25.700Z,0.40
2023-04-01T01:27:30.583Z,0.65
2023-04-01T01:30:44.088Z,0.83
2023-04-01T01:34:12.750Z,0.90
2023-04-01T01:37:18.615Z,0.85
2023-04-01T01:40:22.533Z,0.70
2023-04-01T01:43:31.329Z,1.00
2023-04-01T01:46:34.405Z,0.90
2023-04-01T01:49:38.097Z,0.80
2023-04-01T01:52:40.884Z,0.70
2023-04-01T01:55:46.909Z,0.80
2023-04-01T01:59:01.454Z,0.90
2023-04-01T02:02:09.095Z,0.83
2023-04-01T02:05:15.807Z,0.77
2023-04-01T02:08:27.985Z,0.70
2023-04-01T02:11:48.841Z,0.60
2023-04-01T02:14:55.885Z,0.80
2023-04-01T02:17:59.100Z,0.97
2023-04-01T02:21:02.163Z,1.30
2023-04-01T02:24:10.012Z,1.20
2023-04-01T02:27:13.515Z,1.30
2023-04-01T02:30:18.452Z,1.35
2023-04-01T02:33:22.140Z,1.23
2023-04-01T02:36:26.464Z,0.80
2023-04-01T02:39:29.683Z,1.58
2023-04-01T02:42:32.480Z,1.30
2023-04-01T02:45:35.397Z,1.20
2023-04-01T02:48:38.915Z,1.30
2023-04-01T02:51:41.687Z,1.00
2023-04-01T02:54:44.565Z,0.95
2023-04-01T02:57:47.323Z,1.02
2023-04-01T03:00:50.163Z,0.93
2023-04-01T03:03:53.083Z,1.13
2023-04-01T03:06:56.510Z,0.85
2023-04-01T03:09:59.278Z,0.95
2023-04-01T03:13:02.777Z,0.80
2023-04-01T03:16:06.064Z,0.70
2023-04-01T03:19:08.973Z,0.70
2023-04-01T03:22:12.557Z,0.80
2023-04-01T03:25:15.412Z,0.50
2023-04-01T03:28:18.183Z,0.43
2023-04-01T03:31:22.457Z,0.65
2023-04-01T03:34:30.423Z,0.50
2023-04-01T03:37:33.287Z,0.45
2023-04-01T03:40:38.414Z,0.70
2023-04-01T03:43:42.711Z,0.50
2023-04-01T03:46:45.544Z,0.70
2023-04-01T03:49:48.542Z,0.53
2023-04-01T03:52:52.298Z,0.60
2023-04-01T03:55:55.498Z,0.70
2023-04-01T03:58:58.453Z,0.80
2023-04-01T04:02:01.477Z,0.50
2023-04-01T04:05:06.966Z,0.50
2023-04-01T04:08:10.468Z,0.50
2023-04-01T04:11:13.327Z,0.40
2023-04-01T04:14:18.372Z,0.57
2023-04-01T04:17:22.111Z,0.57
2023-04-01T04:20:25.012Z,0.57
2023-04-01T04:23:29.489Z,0.70
2023-04-01T04:26:32.702Z,0.60
2023-04-01T04:29:37.033Z,0.57
2023-04-01T04:32:39.901Z,0.50
2023-04-01T04:35:42.750Z,1.10
2023-04-01T04:38:47.027Z,0.90
2023-04-01T04:41:49.948Z,1.48
2023-04-01T04:44:53.154Z,1.63
2023-04-01T04:47:56.166Z,1.60
2023-04-01T04:50:59.228Z,2.07
2023-04-01T04:54:01.990Z,3.00
2023-04-01T04:57:18.316Z,2.10
2023-04-01T05:00:28.280Z,2.20
2023-04-01T05:03:37.070Z,2.33
2023-04-01T05:06:39.900Z,1.50
2023-04-01T05:09:43.303Z,1.58
2023-04-01T05:12:46.849Z,1.88
2023-04-01T05:15:54.075Z,1.80
2023-04-01T05:18:57.012Z,1.85
2023-04-01T05:21:59.844Z,1.67
2023-04-01T05:25:02.914Z,2.33
2023-04-01T05:28:05.822Z,1.90
2023-04-01T05:31:09.922Z,1.67
2023-04-01T05:34:15.878Z,1.75
2023-04-01T05:37:18.988Z,1.70
2023-04-01T05:40:21.951Z,2.30
2023-04-01T05:43:24.684Z,2.22
2023-04-01T05:46:29.570Z,18.00
2023-04-01T05:49:48.901Z,6.35
2023-04-01T05:52:51.852Z,22.30
2023-04-01T05:55:54.635Z,7.43
2023-04-01T05:58:57.817Z,6.18
2023-04-01T06:02:01.025Z,4.32
2023-04-01T06:05:11.936Z,7.35
2023-04-01T06:08:19.817Z,5.00
2023-04-01T06:11:36.277Z,3.00
2023-04-01T06:15:04.602Z,2.20
2023-04-01T06:18:40.482Z,2.75
2023-04-01T06:21:43.421Z,1.27
2023-04-01T06:25:12.248Z,2.13
2023-04-01T06:28:55.000Z,1.45
2023-04-01T06:32:35.460Z,0.98
2023-04-01T06:36:06.063Z,0.80
2023-04-01T06:39:31.087Z,0.50
2023-04-01T06:43:09.805Z,0.70
2023-04-01T06:46:58.994Z,0.50
2023-04-01T06:50:31.282Z,0.70
2023-04-01T06:54:32.225Z,0.30
2023-04-01T06:57:48.627Z,0.60
2023-04-01T07:01:05.079Z,0.60
2023-04-01T07:04:16.218Z,1.20
2023-04-01T07:07:28.194Z,2.40
2023-04-01T07:10:59.675Z,4.72
2023-04-01T07:14:36.637Z,6.85
2023-04-01T07:17:42.980Z,9.50
2023-04-01T07:20:47.242Z,8.20
2023-04-01T07:23:51.842Z,3.25
2023-04-01T07:27:15.833Z,1.65
2023-04-01T07:30:23.246Z,1.10
2023-04-01T07:33:38.436Z,1.00
2023-04-01T07:37:15.644Z,1.20
2023-04-01T07:40:18.599Z,1.15
2023-04-01T07:43:41.383Z,1.00
2023-04-01T07:47:32.627Z,1.10
2023-04-01T07:50:47.110Z,1.13
2023-04-01T07:54:09.125Z,0.95
2023-04-01T07:57:35.094Z,0.70
2023-04-01T08:00:57.630Z,0.88
2023-04-01T08:04:47.636Z,1.30
2023-04-01T08:08:00.906Z,1.70
2023-04-01T08:11:53.552Z,1.08
2023-04-01T08:15:31.127Z,0.60
2023-04-01T08:19:25.631Z,0.82
2023-04-01T08:22:42.940Z,0.50
2023-04-01T08:26:06.503Z,0.70
2023-04-01T08:29:19.498Z,0.70
2023-04-01T08:32:47.401Z,0.70
2023-04-01T08:35:59.905Z,0.45
2023-04-01T08:39:13.693Z,0.32
2023-04-01T08:42:47.220Z,0.60
2023-04-01T08:46:10.413Z,0.43
2023-04-01T08:49:51.005Z,0.65
2023-04-01T08:53:29.016Z,0.50
2023-04-01T08:56:43.153Z,0.75
2023-04-01T09:00:28.101Z,0.40
2023-04-01T09:04:06.507Z,0.45
2023-04-01T09:07:21.725Z,0.60
2023-04-01T09:10:37.181Z,0.68
2023-04-01T09:14:28.606Z,0.50
2023-04-01T09:18:14.983Z,0.53
2023-04-01T09:21:21.909Z,0.60
2023-04-01T09:24:39.279Z,0.80
2023-04-01T09:27:57.247Z,0.73
2023-04-01T09:31:03.010Z,1.23
2023-04-01T09:34:34.274Z,0.63
2023-04-01T09:37:45.698Z,0.43
2023-04-01T09:41:01.400Z,0.40
2023-04-01T09:44:43.329Z,0.30
2023-04-01T09:48:04.937Z,0.82
2023-04-01T09:51:32.896Z,0.33
2023-04-01T09:55:00.029Z,0.30
2023-04-01T09:58:23.128Z,0.52
2023-04-01T10:02:33.578Z,0.60
2023-04-01T10:05:55.398Z,0.88
2023-04-01T10:09:23.194Z,0.50
2023-04-01T10:13:13.104Z,0.80
2023-04-01T10:16:37.345Z,0.93
2023-04-01T10:20:05.634Z,1.20
2023-04-01T10:23:41.863Z,1.20
2023-04-01T10:26:51.079Z,0.70
2023-04-01T10:30:53.906Z,0.93
2023-04-01T10:34:25.454Z,1.17
2023-04-01T10:37:58.016Z,2.05
2023-04-01T10:41:17.463Z,1.20
2023-04-01T10:45:21.103Z,1.23
2023-04-01T10:48:45.317Z,1.13
2023-04-01T10:52:24.825Z,1.48
2023-04-01T10:56:10.483Z,0.85
2023-04-01T11:00:00.255Z,0.93
2023-04-01T11:03:56.219Z,1.00
2023-04-01T11:07:29.225Z,1.00
2023-04-01T11:11:10.455Z,1.40
2023-04-01T11:14:50.914Z,1.00
2023-04-01T11:18:32.917Z,1.13
2023-04-01T11:22:10.671Z,1.00
2023-04-01T11:25:38.800Z,0.93
2023-04-01T11:29:21.878Z,0.82
2023-04-01T11:32:35.054Z,0.70
2023-04-01T11:35:47.796Z,0.50
2023-04-01T11:39:15.731Z,0.97
2023-04-01T11:42:56.077Z,0.80
2023-04-01T11:46:25.130Z,0.85
2023-04-01T11:49:51.056Z,1.15
2023-04-01T11:53:18.634Z,0.30
2023-04-01T11:56:45.772Z,0.60
2023-04-01T12:00:14.300Z,0.22
2023-04-01T12:03:47.854Z,0.50
2023-04-01T12:06:56.342Z,0.45
2023-04-01T12:10:35.046Z,0.40
2023-04-01T12:13:49.216Z,1.00
2023-04-01T12:17:27.328Z,1.20
2023-04-01T12:20:45.402Z,1.70
2023-04-01T12:24:00.056Z,1.40
2023-04-01T12:27:30.450Z,1.42
2023-04-01T12:30:52.554Z,1.57
2023-04-01T12:34:07.642Z,1.10
2023-04-01T12:37:36.588Z,1.30
2023-04-01T12:41:01.076Z,1.10
2023-04-01T12:44:19.147Z,1.25
2023-04-01T12:47:29.284Z,1.17
2023-04-01T12:50:47.833Z,1.33
2023-04-01T12:54:08.645Z,1.30
2023-04-01T12:57:45.817Z,1.05
2023-04-01T13:00:54.353Z,1.10
2023-04-01T13:04:06.212Z,0.70
2023-04-01T13:07:22.758Z,0.88
2023-04-01T13:10:34.567Z,0.52
2023-04-01T13:14:00.772Z,0.80
2023-04-01T13:17:21.926Z,0.70
2023-04-01T13:20:40.310Z,1.00
2023-04-01T13:24:10.349Z,0.93
2023-04-01T13:27:23.374Z,1.10
2023-04-01T13:30:31.814Z,0.70
2023-04-01T13:34:00.900Z,0.68
2023-04-01T13:37:36.968Z,1.00
2023-04-01T13:41:13.580Z,1.10
2023-04-01T13:44:30.086Z,1.15
2023-04-01T13:47:52.543Z,0.70
2023-04-01T13:51:07.288Z,1.05
2023-04-01T13:54:21.950Z,0.53
2023-04-01T13:57:55.967Z,0.60
2023-04-01T14:01:29.554Z,0.20
2023-04-01T14:04:44.847Z,0.38
2023-04-01T14:08:09.118Z,0.13
2023-04-01T14:11:53.802Z,0.70
2023-04-01T14:15:26.455Z,0.20
2023-04-01T14:18:51.642Z,0.88
2023-04-01T14:22:39.565Z,0.13
2023-04-01T14:26:03.504Z,0.10
2023-04-01T14:29:24.175Z,0.00
2023-04-01T14:32:35.996Z,0.00
2023-04-01T14:36:05.945Z,0.00
2023-04-01T14:39:23.697Z,0.10
2023-04-01T14:42:29.219Z,0.10
2023-04-01T14:46:01.049Z,0.10
2023-04-01T14:49:15.490Z,0.10
2023-04-01T14:52:32.990Z,0.10
2023-04-01T14:55:44.586Z,0.03
2023-04-01T14:58:51.767Z,0.00
2023-04-01T15:02:02.398Z,0.20
2023-04-01T15:05:43.741Z,0.00
2023-04-01T15:08:55.985Z,0.00
2023-04-01T15:12:15.658Z,0.10
2023-04-01T15:15:46.362Z,0.20
2023-04-01T15:19:10.520Z,0.20
2023-04-01T15:22:54.320Z,0.20
2023-04-01T15:26:12.841Z,0.00
2023-04-01T15:29:40.631Z,0.15
2023-04-01T15:33:12.356Z,0.40
2023-04-01T15:36:48.819Z,0.40
2023-04-01T15:40:07.164Z,0.40
2023-04-01T15:43:28.985Z,0.52
2023-04-01T15:46:41.902Z,0.68
2023-04-01T15:49:56.609Z,0.93
2023-04-01T15:53:40.605Z,0.70
2023-04-01T15:57:13.247Z,0.63
2023-04-01T16:00:43.799Z,0.90
2023-04-01T16:04:00.859Z,0.73
2023-04-01T16:07:12.495Z,0.82
2023-04-01T16:10:18.191Z,1.05
2023-04-01T16:13:39.413Z,1.13
2023-04-01T16:16:52.637Z,1.15
2023-04-01T16:20:03.773Z,1.45
2023-04-01T16:23:40.404Z,1.35
2023-04-01T16:26:54.347Z,0.90
2023-04-01T16:30:04.378Z,1.20
2023-04-01T16:33:22.435Z,0.80
2023-04-01T16:36:57.077Z,1.25
2023-04-01T16:40:21.854Z,1.60
2023-04-01T16:43:31.800Z,1.48
2023-04-01T16:46:47.834Z,0.57
2023-04-01T16:50:11.514Z,0.50
2023-04-01T16:53:16.581Z,0.65
2023-04-01T16:56:39.173Z,0.45
2023-04-01T16:59:46.664Z,0.40
2023-04-01T17:02:52.961Z,0.90
2023-04-01T17:06:04.662Z,0.98
2023-04-01T17:09:38.309Z,1.17
2023-04-01T17:13:19.121Z,1.50
2023-04-01T17:17:03.947Z,0.88
2023-04-01T17:20:41.451Z,2.13
2023-04-01T17:24:22.762Z,1.70
2023-04-01T17:27:52.423Z,1.77
2023-04-01T17:31:19.886Z,3.08
2023-04-01T17:34:29.126Z,3.22
2023-04-01T17:38:00.992Z,3.20
2023-04-01T17:41:27.744Z,2.80
2023-04-01T17:44:34.033Z,4.45
2023-04-01T17:47:49.115Z,5.57
2023-04-01T17:50:54.908Z,5.20
2023-04-01T17:54:25.616Z,5.13
2023-04-01T17:57:45.181Z,6.38
2023-04-01T18:01:07.296Z,5.18
2023-04-01T18:04:51.592Z,2.38
2023-04-01T18:08:10.103Z,1.00
2023-04-01T18:11:53.880Z,0.20
2023-04-01T18:15:20.580Z,0.22
2023-04-01T18:18:45.672Z,0.25
2023-04-01T18:21:53.338Z,0.40
2023-04-01T18:25:14.655Z,0.30
2023-04-01T18:28:38.664Z,0.17
2023-04-01T18:31:47.056Z,0.10
2023-04-01T18:35:02.808Z,0.20
2023-04-01T18:38:20.050Z,0.10
2023-04-01T18:42:01.476Z,0.50
2023-04-01T18:45:35.095Z,0.30
2023-04-01T18:49:02.130Z,0.57
2023-04-01T18:52:28.882Z,0.85
2023-04-01T18:55:47.703Z,0.68
2023-04-01T18:59:07.196Z,0.50
2023-04-01T19:02:30.038Z,0.60
2023-04-01T19:05:37.886Z,0.60
2023-04-01T19:08:42.023Z,0.65
2023-04-01T19:12:08.811Z,0.35
2023-04-01T19:15:11.848Z,0.77
2023-04-01T19:18:23.525Z,0.27
2023-04-01T19:21:38.108Z,0.60
2023-04-01T19:24:49.838Z,0.47
2023-04-01T19:28:02.267Z,0.20
2023-04-01T19:31:20.777Z,0.47
2023-04-01T19:34:32.800Z,0.20
2023-04-01T19:37:45.606Z,0.50
2023-04-01T19:41:25.990Z,0.50
2023-04-01T19:45:07.688Z,0.57
2023-04-01T19:48:33.007Z,0.60
2023-04-01T19:51:48.810Z,0.70
2023-04-01T19:54:57.212Z,0.38
2023-04-01T19:58:27.319Z,0.60
2023-04-01T20:01:47.156Z,0.80
2023-04-01T20:04:57.652Z,0.75
2023-04-01T20:08:09.944Z,0.43
2023-04-01T20:11:31.468Z,0.68
2023-04-01T20:14:48.880Z,0.60
2023-04-01T20:17:54.967Z,0.55
2023-04-01T20:21:03.172Z,0.70
2023-04-01T20:24:15.332Z,0.50
2023-04-01T20:27:25.566Z,0.80
2023-04-01T20:30:47.485Z,0.70
2023-04-01T20:34:08.657Z,0.60
2023-04-01T20:37:33.235Z,0.55
2023-04-01T20:40:39.958Z,0.63
2023-04-01T20:43:56.888Z,0.50
2023-04-01T20:47:37.174Z,0.60
2023-04-01T20:50:53.209Z,0.30
2023-04-01T20:54:43.739Z,0.50
2023-04-01T20:58:18.248Z,0.70
2023-04-01T21:01:32.972Z,0.75
2023-04-01T21:05:09.652Z,1.00
2023-04-01T21:08:26.094Z,1.00
2023-04-01T21:11:50.821Z,0.93
2023-04-01T21:15:04.269Z,0.73
2023-04-01T21:18:37.597Z,0.77
2023-04-01T21:21:48.216Z,0.82
2023-04-01T21:25:16.997Z,1.52
2023-04-01T21:28:22.728Z,1.25
2023-04-01T21:31:37.287Z,1.37
2023-04-01T21:34:55.936Z,1.30
2023-04-01T21:38:10.472Z,1.52
2023-04-01T21:41:21.919Z,1.10
2023-04-01T21:44:47.739Z,1.40
2023-04-01T21:48:04.829Z,1.60
2023-04-01T21:51:43.845Z,1.20
2023-04-01T21:55:23.955Z,1.52
2023-04-01T21:58:51.431Z,1.20
2023-04-01T22:02:21.276Z,1.45
2023-04-01T22:05:28.293Z,1.40
2023-04-01T22:08:56.281Z,1.42
2023-04-01T22:12:30.510Z,1.30
2023-04-01T22:16:08.598Z,1.10
2023-04-01T22:19:21.082Z,1.40
2023-04-01T22:22:35.693Z,1.43
2023-04-01T22:26:12.184Z,1.10
2023-04-01T22:29:29.586Z,1.13
2023-04-01T22:32:46.625Z,1.10
2023-04-01T22:36:05.845Z,1.75
2023-04-01T22:39:14.204Z,1.50
2023-04-01T22:42:25.364Z,1.10
2023-04-01T22:46:05.570Z,1.40
2023-04-01T22:49:30.477Z,0.95
2023-04-01T22:52:40.061Z,1.23
2023-04-01T22:55:53.693Z,0.87
2023-04-01T22:59:18.946Z,1.08
2023-04-01T23:02:29.869Z,0.70
2023-04-01T23:05:35.096Z,0.65
2023-04-01T23:08:38.204Z,1.23
2023-04-01T23:11:52.873Z,1.87
2023-04-01T23:15:00.980Z,1.52
2023-04-01T23:18:13.925Z,1.70
2023-04-01T23:21:35.030Z,0.55
2023-04-01T23:24:46.256Z,0.88
2023-04-01T23:27:57.528Z,0.60
2023-04-01T23:31:00.492Z,0.50
2023-04-01T23:34:34.816Z,0.70
2023-04-01T23:37:37.533Z,0.32
2023-04-01T23:40:41.809Z,0.55
2023-04-01T23:43:46.601Z,0.30
2023-04-01T23:46:50.461Z,0.30
2023-04-01T23:49:56.167Z,0.40
2023-04-01T23:53:04.187Z,0.25
2023-04-01T23:56:07.482Z,0.93
2023-04-01T23:59:40.914Z,0.33
